createdAt,value
2023-02-16T00:00:56.083Z,101901.09
2023-02-16T00:03:27.259Z,102004.88
2023-02-16T00:06:16.931Z,102047.09
2023-02-16T00:08:48.653Z,102004.34
2023-02-16T00:11:43.719Z,102028.44
2023-02-16T00:14:13.641Z,102049.72
2023-02-16T00:16:42.448Z,102020.97
2023-02-16T00:19:22.458Z,102028.50
2023-02-16T00:21:52.890Z,102061.41
2023-02-16T00:24:21.734Z,102005.91
2023-02-16T00:26:50.943Z,102016.28
2023-02-16T00:29:25.591Z,102064.34
2023-02-16T00:31:55.491Z,102052.97
2023-02-16T00:34:29.247Z,102025.22
2023-02-16T00:36:58.257Z,102069.13
2023-02-16T00:39:27.432Z,102051.31
2023-02-16T00:41:59.711Z,102059.47
2023-02-16T00:44:38.369Z,102031.22
2023-02-16T00:47:30.478Z,102067.25
2023-02-16T00:50:01.971Z,101940.50
2023-02-16T00:52:31.292Z,102071.31
2023-02-16T00:55:01.306Z,102046.19
2023-02-16T00:57:35.197Z,102049.81
2023-02-16T01:00:09.784Z,102026.56
2023-02-16T01:02:40.593Z,102086.56
2023-02-16T01:05:09.419Z,102057.47
2023-02-16T01:07:56.635Z,102039.97
2023-02-16T01:10:44.758Z,101953.34
2023-02-16T01:13:14.912Z,102017.84
2023-02-16T01:15:44.337Z,102050.13
2023-02-16T01:18:19.146Z,102043.84
2023-02-16T01:20:48.390Z,102063.16
2023-02-16T01:23:17.113Z,102039.56
2023-02-16T01:25:45.735Z,102047.50
2023-02-16T01:28:25.634Z,102072.47
2023-02-16T01:30:54.938Z,102048.13
2023-02-16T01:33:23.835Z,102060.97
2023-02-16T01:35:54.484Z,102096.03
2023-02-16T01:38:26.197Z,102055.66
2023-02-16T01:41:00.402Z,102059.16
2023-02-16T01:43:49.269Z,102059.94
2023-02-16T01:46:50.188Z,102090.19
2023-02-16T01:49:21.044Z,102058.91
2023-02-16T01:51:59.143Z,102055.13
2023-02-16T01:54:34.359Z,102111.53
2023-02-16T01:57:27.999Z,102100.59
2023-02-16T01:59:56.675Z,102105.28
2023-02-16T02:02:34.630Z,102091.81
2023-02-16T02:05:36.294Z,102123.84
2023-02-16T02:08:30.827Z,102144.47
2023-02-16T02:11:15.136Z,102117.19
2023-02-16T02:14:00.156Z,102099.50
2023-02-16T02:16:32.344Z,102100.06
2023-02-16T02:19:01.927Z,102109.72
2023-02-16T02:22:33.608Z,102143.00
2023-02-16T02:25:41.806Z,102138.78
2023-02-16T02:28:25.978Z,102139.03
2023-02-16T02:30:59.074Z,102134.88
2023-02-16T02:34:02.770Z,102100.41
2023-02-16T02:36:31.378Z,102146.66
2023-02-16T02:39:18.553Z,102146.97
2023-02-16T02:42:05.647Z,102098.63
2023-02-16T02:45:05.408Z,102146.97
2023-02-16T02:47:44.918Z,102115.38
2023-02-16T02:51:13.334Z,102153.41
2023-02-16T02:53:49.862Z,102124.47
2023-02-16T02:56:38.249Z,102152.19
2023-02-16T02:59:29.088Z,102024.34
2023-02-16T03:02:02.089Z,102120.22
2023-02-16T03:04:32.222Z,102141.44
2023-02-16T03:07:03.320Z,102125.47
2023-02-16T03:09:32.113Z,102044.31
2023-02-16T03:12:21.872Z,102083.19
2023-02-16T03:14:59.764Z,102159.44
2023-02-16T03:17:56.515Z,102160.16
2023-02-16T03:20:43.761Z,102139.91
2023-02-16T03:23:31.896Z,102128.81
2023-02-16T03:26:18.716Z,102169.69
2023-02-16T03:29:07.608Z,102175.84
2023-02-16T03:31:41.512Z,102145.75
2023-02-16T03:34:11.332Z,102130.03
2023-02-16T03:36:44.249Z,102179.44
2023-02-16T03:39:13.544Z,102196.56
2023-02-16T03:41:49.884Z,102169.72
2023-02-16T03:44:19.154Z,102147.44
2023-02-16T03:46:50.344Z,102181.25
2023-02-16T03:49:20.058Z,102168.34
2023-02-16T03:51:51.490Z,102213.94
2023-02-16T03:54:20.256Z,102170.41
2023-02-16T03:56:48.693Z,102172.25
2023-02-16T03:59:17.572Z,102176.56
2023-02-16T04:01:46.462Z,102237.59
2023-02-16T04:04:15.997Z,102196.47
2023-02-16T04:06:44.571Z,102202.72
2023-02-16T04:09:13.166Z,102174.78
2023-02-16T04:12:00.126Z,102114.13
2023-02-16T04:14:29.203Z,102199.94
2023-02-16T04:17:00.244Z,102213.94
2023-02-16T04:19:28.958Z,102198.22
2023-02-16T04:21:57.499Z,102061.94
2023-02-16T04:24:26.459Z,102220.22
2023-02-16T04:26:55.134Z,102187.13
2023-02-16T04:29:24.032Z,102216.78
2023-02-16T04:31:52.726Z,102206.53
2023-02-16T04:34:21.545Z,102189.59
2023-02-16T04:36:50.305Z,102203.25
2023-02-16T04:39:19.286Z,102183.81
2023-02-16T04:41:48.143Z,102210.72
2023-02-16T04:44:16.916Z,102217.50
2023-02-16T04:46:45.934Z,102170.88
2023-02-16T04:49:15.132Z,102210.06
2023-02-16T04:51:44.029Z,102202.03
2023-02-16T04:54:13.143Z,102231.81
2023-02-16T04:56:45.807Z,102240.25
2023-02-16T04:59:16.108Z,102243.47
2023-02-16T05:01:46.857Z,102120.22
2023-02-16T05:04:17.138Z,102239.50
2023-02-16T05:06:46.589Z,102203.06
2023-02-16T05:09:15.307Z,102114.06
2023-02-16T05:12:02.800Z,102224.59
2023-02-16T05:14:43.352Z,102236.97
2023-02-16T05:17:19.591Z,102246.19
2023-02-16T05:19:51.988Z,102247.03
2023-02-16T05:22:21.543Z,102238.69
2023-02-16T05:24:50.604Z,102122.66
2023-02-16T05:27:24.909Z,102223.31
2023-02-16T05:29:53.808Z,102257.69
2023-02-16T05:32:25.366Z,102252.88
2023-02-16T05:34:57.235Z,102222.44
2023-02-16T05:37:26.039Z,102250.91
2023-02-16T05:39:54.743Z,102137.19
2023-02-16T05:42:23.374Z,102272.59
2023-02-16T05:44:52.034Z,102260.38
2023-02-16T05:47:22.479Z,102230.59
2023-02-16T05:49:51.572Z,102221.34
2023-02-16T05:52:20.244Z,102263.69
2023-02-16T05:54:48.689Z,102192.78
2023-02-16T05:57:17.329Z,102250.00
2023-02-16T05:59:46.287Z,102238.69
2023-02-16T06:02:15.410Z,102237.75
2023-02-16T06:04:44.110Z,102250.78
2023-02-16T06:07:14.827Z,102166.31
2023-02-16T06:09:44.286Z,102241.25
2023-02-16T06:12:13.697Z,102248.75
2023-02-16T06:14:42.339Z,102230.81
2023-02-16T06:17:11.284Z,102237.63
2023-02-16T06:19:40.130Z,102232.59
2023-02-16T06:22:08.710Z,102229.59
2023-02-16T06:24:39.948Z,102248.06
2023-02-16T06:27:08.684Z,102277.19
2023-02-16T06:29:37.319Z,102252.72
2023-02-16T06:32:06.216Z,102247.06
2023-02-16T06:34:34.943Z,102233.09
2023-02-16T06:37:03.729Z,102245.16
2023-02-16T06:39:32.225Z,102240.50
2023-02-16T06:42:00.865Z,102253.59
2023-02-16T06:44:29.606Z,102227.25
2023-02-16T06:46:58.645Z,102249.22
2023-02-16T06:49:28.026Z,102260.56
2023-02-16T06:51:56.931Z,102163.03
2023-02-16T06:54:25.688Z,102262.56
2023-02-16T06:56:54.280Z,102210.25
2023-02-16T06:59:23.018Z,102245.63
2023-02-16T07:01:51.683Z,102237.00
2023-02-16T07:04:23.323Z,102278.03
2023-02-16T07:06:54.632Z,102283.09
2023-02-16T07:09:23.757Z,102244.16
2023-02-16T07:11:52.487Z,102247.50
2023-02-16T07:14:21.517Z,102272.84
2023-02-16T07:16:50.399Z,102285.00
2023-02-16T07:19:19.096Z,102279.34
2023-02-16T07:21:47.767Z,102280.78
2023-02-16T07:24:16.332Z,102284.34
2023-02-16T07:26:47.987Z,102286.22
2023-02-16T07:29:16.812Z,102171.84
2023-02-16T07:31:45.784Z,102186.31
2023-02-16T07:34:14.432Z,102270.34
2023-02-16T07:36:43.192Z,102267.22
2023-02-16T07:39:12.616Z,102265.44
2023-02-16T07:41:41.214Z,102184.03
2023-02-16T07:44:10.262Z,102259.44
2023-02-16T07:46:39.065Z,102245.91
2023-02-16T07:49:07.899Z,102225.47
2023-02-16T07:51:36.673Z,102265.25
2023-02-16T07:54:05.453Z,102283.28
2023-02-16T07:56:36.700Z,102216.72
2023-02-16T07:59:05.467Z,102276.28
2023-02-16T08:01:35.144Z,102246.94
2023-02-16T08:04:03.721Z,102221.69
2023-02-16T08:06:32.412Z,102246.94
2023-02-16T08:09:01.078Z,102250.09
2023-02-16T08:11:29.918Z,102272.03
2023-02-16T08:14:01.056Z,102283.75
2023-02-16T08:16:30.931Z,102250.47
2023-02-16T08:19:01.200Z,102251.19
2023-02-16T08:21:32.801Z,102274.78
2023-02-16T08:24:04.201Z,102230.09
2023-02-16T08:26:42.402Z,102283.03
2023-02-16T08:29:13.236Z,102218.28
2023-02-16T08:31:48.569Z,102279.53
2023-02-16T08:34:19.515Z,102144.38
2023-02-16T08:36:53.946Z,102259.22
2023-02-16T08:39:33.681Z,102264.47
2023-02-16T08:42:02.801Z,102291.63
2023-02-16T08:44:34.235Z,102256.63
2023-02-16T08:47:03.499Z,102284.13
2023-02-16T08:49:35.012Z,102250.53
2023-02-16T08:52:05.046Z,102235.34
2023-02-16T08:54:34.025Z,102258.97
2023-02-16T08:57:03.727Z,102249.78
2023-02-16T08:59:33.828Z,102207.13
2023-02-16T09:02:02.919Z,102250.38
2023-02-16T09:04:31.785Z,102229.34
2023-02-16T09:07:01.281Z,102235.22
2023-02-16T09:09:33.104Z,102244.66
2023-02-16T09:12:02.235Z,102224.38
2023-02-16T09:14:30.946Z,102262.09
2023-02-16T09:16:59.684Z,102249.16
2023-02-16T09:19:28.991Z,102235.19
2023-02-16T09:22:00.178Z,102258.63
2023-02-16T09:24:29.068Z,102235.22
2023-02-16T09:26:57.675Z,102281.47
2023-02-16T09:29:26.483Z,102240.00
2023-02-16T09:31:57.771Z,102232.34
2023-02-16T09:34:28.343Z,102237.22
2023-02-16T09:36:57.350Z,102248.84
2023-02-16T09:39:26.058Z,102288.00
2023-02-16T09:42:34.128Z,102288.09
2023-02-16T09:45:18.909Z,102277.59
2023-02-16T09:47:51.577Z,102295.31
2023-02-16T09:50:50.261Z,102291.34
2023-02-16T09:53:23.435Z,102261.94
2023-02-16T09:56:03.852Z,102270.72
2023-02-16T09:58:54.998Z,102176.41
2023-02-16T10:01:45.728Z,102300.44
2023-02-16T10:04:36.256Z,102296.69
2023-02-16T10:07:43.564Z,102291.81
2023-02-16T10:10:17.315Z,102288.38
2023-02-16T10:12:56.655Z,102278.72
2023-02-16T10:15:31.363Z,102276.44
2023-02-16T10:18:09.457Z,102293.53
2023-02-16T10:20:45.047Z,102267.69
2023-02-16T10:23:35.054Z,102319.78
2023-02-16T10:26:14.916Z,102308.03
2023-02-16T10:28:51.075Z,102316.69
2023-02-16T10:31:25.742Z,102316.91
2023-02-16T10:34:19.285Z,102316.06
2023-02-16T10:37:32.661Z,102313.59
2023-02-16T10:40:42.621Z,102315.41
2023-02-16T10:43:22.226Z,102286.00
2023-02-16T10:45:57.441Z,102293.88
2023-02-16T10:48:27.101Z,102213.41
2023-02-16T10:51:17.564Z,102291.00
2023-02-16T10:54:12.806Z,102303.84
2023-02-16T10:57:39.803Z,102319.50
2023-02-16T11:00:14.103Z,102287.22
2023-02-16T11:02:44.562Z,102318.94
2023-02-16T11:05:28.571Z,102333.16
2023-02-16T11:08:02.136Z,102276.41
2023-02-16T11:10:51.725Z,102274.31
2023-02-16T11:13:38.770Z,102312.78
2023-02-16T11:16:14.598Z,102287.16
2023-02-16T11:18:47.527Z,102280.97
2023-02-16T11:21:17.530Z,102307.13
2023-02-16T11:24:02.848Z,102203.94
2023-02-16T11:26:32.175Z,102268.16
2023-02-16T11:29:19.958Z,102324.31
2023-02-16T11:31:49.005Z,102298.78
2023-02-16T11:34:34.270Z,102317.19
2023-02-16T11:37:07.875Z,102329.47
2023-02-16T11:39:40.843Z,102301.47
2023-02-16T11:42:28.270Z,102318.38
2023-02-16T11:45:00.337Z,102292.53
2023-02-16T11:47:35.518Z,102315.66
2023-02-16T11:50:29.702Z,102331.59
2023-02-16T11:53:24.245Z,102331.53
2023-02-16T11:56:28.181Z,102295.31
2023-02-16T11:59:09.184Z,102337.56
2023-02-16T12:02:06.083Z,102309.94
2023-02-16T12:04:34.760Z,102341.09
2023-02-16T12:07:28.763Z,102311.28
2023-02-16T12:10:11.227Z,102337.34
2023-02-16T12:13:01.668Z,102340.41
2023-02-16T12:15:50.725Z,102346.53
2023-02-16T12:18:35.044Z,102307.94
2023-02-16T12:21:19.244Z,102216.19
2023-02-16T12:24:06.222Z,102298.63
2023-02-16T12:26:43.797Z,102337.59
2023-02-16T12:29:31.597Z,102343.50
2023-02-16T12:32:16.864Z,102234.34
2023-02-16T12:34:58.353Z,102346.81
2023-02-16T12:37:40.640Z,102297.09
2023-02-16T12:40:27.944Z,102315.09
2023-02-16T12:43:04.818Z,102358.44
2023-02-16T12:45:39.484Z,102361.72
2023-02-16T12:48:30.143Z,102359.28
2023-02-16T12:51:03.569Z,102370.03
2023-02-16T12:53:42.642Z,102103.28
2023-02-16T12:56:20.537Z,102354.53
2023-02-16T12:58:57.058Z,102260.94
2023-02-16T13:01:34.579Z,102348.13
2023-02-16T13:04:15.524Z,102376.34
2023-02-16T13:06:56.519Z,102382.19
2023-02-16T13:09:38.764Z,102389.25
2023-02-16T13:12:29.691Z,102392.03
2023-02-16T13:15:28.746Z,102389.31
2023-02-16T13:18:02.496Z,102278.13
2023-02-16T13:20:32.580Z,102367.06
2023-02-16T13:23:16.610Z,102394.00
2023-02-16T13:26:05.407Z,102387.03
2023-02-16T13:29:11.823Z,102385.84
2023-02-16T13:31:50.129Z,102396.63
2023-02-16T13:34:19.316Z,102398.13
2023-02-16T13:37:19.052Z,102388.31
2023-02-16T13:39:58.697Z,102398.56
2023-02-16T13:42:41.611Z,102404.44
2023-02-16T13:45:22.690Z,102356.19
2023-02-16T13:47:54.517Z,102272.94
2023-02-16T13:50:23.254Z,102402.56
2023-02-16T13:52:54.294Z,102391.91
2023-02-16T13:55:34.496Z,102394.28
2023-02-16T13:58:25.988Z,102392.75
2023-02-16T14:00:55.409Z,102335.44
2023-02-16T14:03:24.474Z,102404.91
2023-02-16T14:05:55.874Z,102400.97
2023-02-16T14:08:28.947Z,102406.19
2023-02-16T14:11:04.731Z,102405.34
2023-02-16T14:13:47.636Z,102414.50
2023-02-16T14:16:23.262Z,102412.19
2023-02-16T14:19:25.949Z,102367.53
2023-02-16T14:21:54.948Z,102362.19
2023-02-16T14:24:26.750Z,102418.69
2023-02-16T14:26:55.790Z,102419.00
2023-02-16T14:29:33.702Z,102405.59
2023-02-16T14:32:18.251Z,102401.72
2023-02-16T14:34:57.029Z,102368.44
2023-02-16T14:37:31.991Z,102381.81
2023-02-16T14:40:36.281Z,102413.91
2023-02-16T14:43:19.703Z,102385.06
2023-02-16T14:45:52.374Z,102414.91
2023-02-16T14:48:42.560Z,102416.22
2023-02-16T14:51:39.790Z,102383.81
2023-02-16T14:54:41.094Z,102342.34
2023-02-16T14:57:25.054Z,102373.38
2023-02-16T15:00:15.898Z,102423.91
2023-02-16T15:03:08.129Z,102410.69
2023-02-16T15:05:38.684Z,102417.66
2023-02-16T15:08:25.062Z,102444.31
2023-02-16T15:10:54.834Z,102409.97
2023-02-16T15:13:32.745Z,102400.75
2023-02-16T15:16:04.559Z,102436.13
2023-02-16T15:18:48.579Z,102370.81
2023-02-16T15:21:24.838Z,102438.56
2023-02-16T15:23:58.915Z,102406.75
2023-02-16T15:26:33.899Z,102419.97
2023-02-16T15:29:25.584Z,102449.88
2023-02-16T15:31:58.897Z,102414.22
2023-02-16T15:34:37.149Z,102414.50
2023-02-16T15:37:34.568Z,102466.25
2023-02-16T15:40:26.358Z,102406.63
2023-02-16T15:42:56.694Z,102308.84
2023-02-16T15:45:30.206Z,102355.06
2023-02-16T15:48:16.883Z,102392.34
2023-02-16T15:50:47.920Z,102383.31
2023-02-16T15:53:43.645Z,102392.25
2023-02-16T15:56:18.453Z,102472.84
2023-02-16T15:58:48.630Z,102374.69
2023-02-16T16:01:31.570Z,102413.34
2023-02-16T16:04:03.401Z,102383.00
2023-02-16T16:06:38.211Z,102408.91
2023-02-16T16:09:09.096Z,102404.88
2023-02-16T16:11:38.749Z,102416.16
2023-02-16T16:14:08.128Z,102402.78
2023-02-16T16:16:37.687Z,102442.47
2023-02-16T16:19:20.328Z,102418.06
2023-02-16T16:21:57.548Z,102429.09
2023-02-16T16:24:39.871Z,102460.75
2023-02-16T16:27:12.554Z,102418.06
2023-02-16T16:29:45.462Z,102416.88
2023-02-16T16:32:23.703Z,102436.22
2023-02-16T16:34:53.025Z,102319.50
2023-02-16T16:37:32.210Z,102333.75
2023-02-16T16:40:21.418Z,102435.47
2023-02-16T16:43:16.741Z,102456.88
2023-02-16T16:45:46.937Z,102461.91
2023-02-16T16:48:15.394Z,102440.00
2023-02-16T16:50:44.176Z,102307.50
2023-02-16T16:53:33.710Z,102462.19
2023-02-16T16:56:02.855Z,102426.66
2023-02-16T16:58:31.534Z,102401.94
2023-02-16T17:01:02.217Z,102449.00
2023-02-16T17:03:31.443Z,102422.75
2023-02-16T17:06:00.210Z,102413.53
2023-02-16T17:08:28.971Z,102419.75
2023-02-16T17:10:57.780Z,102446.34
2023-02-16T17:13:28.283Z,102458.53
2023-02-16T17:15:58.847Z,102395.91
2023-02-16T17:18:28.052Z,102441.13
2023-02-16T17:20:58.593Z,102438.78
2023-02-16T17:23:29.457Z,102306.09
2023-02-16T17:25:58.658Z,102383.72
2023-02-16T17:28:29.989Z,102391.13
2023-02-16T17:31:01.818Z,102374.00
2023-02-16T17:33:30.706Z,102380.50
2023-02-16T17:35:59.778Z,102394.78
2023-02-16T17:38:28.680Z,102421.84
2023-02-16T17:40:58.702Z,102370.66
2023-02-16T17:43:28.242Z,102427.56
2023-02-16T17:46:00.324Z,102381.75
2023-02-16T17:48:31.314Z,102435.69
2023-02-16T17:50:59.982Z,102400.16
2023-02-16T17:53:29.537Z,102403.28
2023-02-16T17:55:59.028Z,102420.66
2023-02-16T17:58:27.847Z,102383.59
2023-02-16T18:00:56.602Z,102403.28
2023-02-16T18:03:27.582Z,102419.47
2023-02-16T18:05:56.894Z,102416.28
2023-02-16T18:08:26.234Z,102416.25
2023-02-16T18:11:04.050Z,102431.16
2023-02-16T18:13:34.811Z,102401.91
2023-02-16T18:16:07.840Z,102379.16
2023-02-16T18:18:42.752Z,102326.63
2023-02-16T18:21:14.017Z,102407.31
2023-02-16T18:23:42.843Z,102370.28
2023-02-16T18:26:15.726Z,102412.53
2023-02-16T18:28:46.731Z,102403.16
2023-02-16T18:31:15.738Z,102441.84
2023-02-16T18:33:44.717Z,102439.78
2023-02-16T18:36:14.329Z,102451.31
2023-02-16T18:38:44.362Z,102438.84
2023-02-16T18:41:14.401Z,102420.69
2023-02-16T18:43:43.375Z,102413.00
2023-02-16T18:46:12.755Z,102403.31
2023-02-16T18:48:42.351Z,102408.69
2023-02-16T18:51:12.761Z,102418.91
2023-02-16T18:53:41.784Z,102428.41
2023-02-16T18:56:12.751Z,102435.25
2023-02-16T18:58:41.623Z,102420.31
2023-02-16T19:01:28.978Z,102410.25
2023-02-16T19:03:59.048Z,102447.84
2023-02-16T19:06:27.899Z,102415.06
2023-02-16T19:08:59.151Z,102450.16
2023-02-16T19:11:32.113Z,102407.19
2023-02-16T19:14:01.033Z,102413.94
2023-02-16T19:16:29.752Z,102447.09
2023-02-16T19:19:01.411Z,102375.47
2023-02-16T19:21:30.148Z,102440.75
2023-02-16T19:23:59.028Z,102426.50
2023-02-16T19:26:27.895Z,102384.88
2023-02-16T19:28:56.629Z,102418.78
2023-02-16T19:31:29.173Z,102445.19
2023-02-16T19:33:59.849Z,102452.91
2023-02-16T19:36:32.291Z,102391.72
2023-02-16T19:39:02.415Z,102388.50
2023-02-16T19:41:37.126Z,102450.56
2023-02-16T19:44:06.073Z,102422.50
2023-02-16T19:46:35.344Z,102410.91
2023-02-16T19:49:04.625Z,102409.50
2023-02-16T19:51:33.648Z,102424.47
2023-02-16T19:54:04.725Z,102401.38
2023-02-16T19:56:33.936Z,102325.13
2023-02-16T19:59:02.769Z,102409.84
2023-02-16T20:01:31.963Z,102419.41
2023-02-16T20:04:01.769Z,102408.75
2023-02-16T20:06:31.865Z,102457.00
2023-02-16T20:09:01.901Z,102433.56
2023-02-16T20:11:31.304Z,102458.94
2023-02-16T20:14:00.755Z,102423.72
2023-02-16T20:16:30.467Z,102485.38
2023-02-16T20:19:00.231Z,102333.84
2023-02-16T20:21:30.829Z,102407.47
2023-02-16T20:24:03.278Z,102455.56
2023-02-16T20:26:38.288Z,102329.09
2023-02-16T20:29:08.886Z,102452.81
2023-02-16T20:31:58.728Z,102468.31
2023-02-16T20:34:28.759Z,102445.72
2023-02-16T20:36:57.585Z,102422.84
2023-02-16T20:39:26.267Z,102430.22
2023-02-16T20:41:59.146Z,102476.81
2023-02-16T20:44:28.189Z,102419.69
2023-02-16T20:46:57.272Z,102457.72
2023-02-16T20:49:25.977Z,102451.13
2023-02-16T20:51:56.923Z,102431.31
2023-02-16T20:54:25.584Z,102425.28
2023-02-16T20:56:54.279Z,102404.88
2023-02-16T20:59:23.227Z,102420.31
2023-02-16T21:01:52.954Z,102436.66
2023-02-16T21:04:22.041Z,102418.25
2023-02-16T21:06:50.935Z,102391.41
2023-02-16T21:09:19.653Z,102436.09
2023-02-16T21:11:48.480Z,102458.91
2023-02-16T21:14:17.068Z,102439.06
2023-02-16T21:16:45.866Z,102425.06
2023-02-16T21:19:22.921Z,102403.09
2023-02-16T21:21:53.385Z,102425.78
2023-02-16T21:24:22.377Z,102424.00
2023-02-16T21:26:51.188Z,102407.22
2023-02-16T21:29:20.023Z,102421.34
2023-02-16T21:31:48.700Z,102440.84
2023-02-16T21:34:17.501Z,102324.78
2023-02-16T21:36:46.285Z,102423.63
2023-02-16T21:39:15.083Z,102413.06
2023-02-16T21:41:43.904Z,102310.63
2023-02-16T21:44:18.725Z,102405.44
2023-02-16T21:46:48.863Z,102410.00
2023-02-16T21:49:20.130Z,102411.06
2023-02-16T21:51:49.885Z,102465.84
2023-02-16T21:54:43.089Z,102451.81
2023-02-16T21:57:11.826Z,102428.41
2023-02-16T21:59:40.386Z,102417.31
2023-02-16T22:02:11.543Z,102456.91
2023-02-16T22:04:40.243Z,102415.72
2023-02-16T22:07:09.164Z,102435.88
2023-02-16T22:09:37.948Z,102390.22
2023-02-16T22:12:12.525Z,102424.38
2023-02-16T22:14:41.306Z,102431.19
2023-02-16T22:17:09.901Z,102453.41
2023-02-16T22:19:38.693Z,102454.31
2023-02-16T22:22:07.401Z,102424.25
2023-02-16T22:24:36.112Z,102319.84
2023-02-16T22:27:04.959Z,102448.78
2023-02-16T22:29:33.523Z,102422.13
2023-02-16T22:32:02.374Z,102405.69
2023-02-16T22:34:31.168Z,102438.69
2023-02-16T22:37:02.619Z,102314.75
2023-02-16T22:39:32.108Z,102445.78
2023-02-16T22:42:00.968Z,102415.53
2023-02-16T22:44:29.447Z,102445.66
2023-02-16T22:46:58.509Z,102436.78
2023-02-16T22:49:27.326Z,102435.72
2023-02-16T22:51:56.068Z,102407.13
2023-02-16T22:54:25.409Z,102433.59
2023-02-16T22:56:54.111Z,102405.34
2023-02-16T22:59:22.912Z,102310.16
2023-02-16T23:01:52.214Z,102465.31
2023-02-16T23:04:20.999Z,102422.72
2023-02-16T23:06:49.801Z,102384.47
2023-02-16T23:09:21.603Z,102418.84
2023-02-16T23:11:51.207Z,102432.47
2023-02-16T23:14:20.307Z,102461.44
2023-02-16T23:16:52.289Z,102423.84
2023-02-16T23:19:24.101Z,102395.06
2023-02-16T23:21:53.249Z,102454.13
2023-02-16T23:24:23.902Z,102410.13
2023-02-16T23:26:53.786Z,102445.03
2023-02-16T23:29:22.773Z,102409.19
2023-02-16T23:31:52.610Z,102439.47
2023-02-16T23:34:21.688Z,102400.44
2023-02-16T23:36:50.470Z,102409.19
2023-02-16T23:39:19.499Z,102300.44
2023-02-16T23:41:48.270Z,102400.44
2023-02-16T23:44:16.782Z,102405.81
2023-02-16T23:46:45.840Z,102418.72
2023-02-16T23:49:14.452Z,102432.81
2023-02-16T23:51:43.189Z,102402.38
2023-02-16T23:54:12.146Z,102405.44
2023-02-16T23:56:41.969Z,102357.09
2023-02-16T23:59:10.695Z,102441.63
